Riviera Beach, Maryland
Current Conditions -  °F | °C
As of 1:13 PM on Monday 26 Jan 2015 (Local Time) from KBWI Reporting Station
Light Snow Light Snow  
Wind Chill: 20°   Ceiling: 1100
Heat Index: 30°   Visibility: 4mi
Dew Point: 27°   Wind: 13mph
Humidity: 86%   Direction: 50°NE
Pressure: 29.74"   Gusts: NA
Location:  39.1259°N, 76.5123°W
Report Text: KBWI 261813Z 05011KT 4SM -SN BR OVC011 M01/M03 A2974 RMK AO2 RAE12PLE12 P0000
Loading
Personal Weather Stations






























Interactive Weather Map New forecast layout! Learn more

10-Day Weather Forecast

Advertisements
Track Severe Weather on mobile